Private Wetterstation Sandau
Wetterdaten: Donnerstag, 07.06.2012
Datum Zeit Temp. A. Feuchte A. Luftdruck Regen Wind Richtung Richtung Taupunkt Windchill
07.06.2012 00:01 12,3 C 82 % 1008,7 hPa 0,0 l/m 1,4 km/h (1 Bft) SO 135 9,3 C 12,3 C
07.06.2012 00:06 12,3 C 82 % 1008,7 hPa 0,0 l/m 1,4 km/h (1 Bft) S-SO 157 9,3 C 12,3 C
07.06.2012 00:11 12,4 C 82 % 1008,7 hPa 0,0 l/m 0,0 km/h (0 Bft) S 180 9,4 C 12,4 C
07.06.2012 00:16 12,4 C 82 % 1008,7 hPa 0,0 l/m 0,0 km/h (0 Bft) S 180 9,4 C 12,4 C
07.06.2012 00:21 12,4 C 82 % 1008,7 hPa 0,0 l/m 0,0 km/h (0 Bft) S-SO 157 9,4 C 12,4 C
07.06.2012 00:26 12,4 C 82 % 1008,7 hPa 0,0 l/m 1,4 km/h (1 Bft) S-SO 157 9,4 C 12,4 C
07.06.2012 00:31 12,4 C 82 % 1008,8 hPa 0,0 l/m 0,0 km/h (0 Bft) S 180 9,4 C 12,4 C
07.06.2012 00:36 12,4 C 82 % 1008,7 hPa 0,0 l/m 0,0 km/h (0 Bft) S-SO 157 9,4 C 12,4 C
07.06.2012 00:41 12,5 C 82 % 1008,8 hPa 0,0 l/m 0,0 km/h (0 Bft) S 180 9,5 C 12,5 C
07.06.2012 00:46 12,5 C 82 % 1008,8 hPa 0,0 l/m 0,0 km/h (0 Bft) S 180 9,5 C 12,5 C
07.06.2012 00:51 12,5 C 82 % 1008,7 hPa 0,0 l/m 0,0 km/h (0 Bft) S-SO 157 9,5 C 12,5 C
07.06.2012 00:56 12,5 C 82 % 1008,7 hPa 0,0 l/m 1,1 km/h (1 Bft) S 180 9,5 C 12,5 C
07.06.2012 01:01 12,5 C 82 % 1008,8 hPa 0,0 l/m 1,4 km/h (1 Bft) S 180 9,5 C 12,5 C
07.06.2012 01:06 12,6 C 82 % 1008,8 hPa 0,0 l/m 2,5 km/h (1 Bft) S-SW 202 9,6 C 12,6 C
07.06.2012 01:11 12,6 C 82 % 1008,7 hPa 0,0 l/m 1,1 km/h (1 Bft) S 180 9,6 C 12,6 C
07.06.2012 01:16 12,6 C 82 % 1008,6 hPa 0,0 l/m 0,0 km/h (0 Bft) SW 225 9,6 C 12,6 C
07.06.2012 01:21 12,6 C 82 % 1008,6 hPa 0,0 l/m 0,0 km/h (0 Bft) S 180 9,6 C 12,6 C
07.06.2012 01:26 12,7 C 82 % 1008,5 hPa 0,0 l/m 0,0 km/h (0 Bft) S 180 9,7 C 12,7 C
07.06.2012 01:31 12,8 C 83 % 1008,6 hPa 0,0 l/m 0,0 km/h (0 Bft) S 180 10,0 C 12,8 C
07.06.2012 01:36 12,8 C 83 % 1008,6 hPa 0,0 l/m 0,0 km/h (0 Bft) W-SW 247 10,0 C 12,8 C
07.06.2012 01:41 12,8 C 83 % 1008,6 hPa 0,0 l/m 0,0 km/h (0 Bft) W-SW 247 10,0 C 12,8 C
07.06.2012 01:46 12,8 C 83 % 1008,8 hPa 0,0 l/m 3,6 km/h (1 Bft) W-SW 247 10,0 C 12,8 C
07.06.2012 01:51 12,8 C 83 % 1008,8 hPa 0,0 l/m 4,3 km/h (1 Bft) W-NW 292 10,0 C 12,8 C
07.06.2012 01:56 12,8 C 83 % 1008,8 hPa 0,0 l/m 4,3 km/h (1 Bft) W-SW 247 10,0 C 12,8 C
07.06.2012 02:01 12,8 C 83 % 1008,9 hPa 0,0 l/m 2,5 km/h (1 Bft) W 270 10,0 C 12,8 C
07.06.2012 02:06 12,9 C 83 % 1008,8 hPa 0,0 l/m 4,7 km/h (1 Bft) W-SW 247 10,1 C 12,9 C
07.06.2012 02:11 12,9 C 83 % 1008,9 hPa 0,0 l/m 3,6 km/h (1 Bft) W 270 10,1 C 12,9 C
07.06.2012 02:16 12,9 C 83 % 1008,8 hPa 0,0 l/m 6,8 km/h (2 Bft) W-SW 247 10,1 C 12,9 C
07.06.2012 02:21 12,9 C 83 % 1008,8 hPa 0,0 l/m 4,0 km/h (1 Bft) W-SW 247 10,1 C 12,9 C
07.06.2012 02:26 12,9 C 83 % 1008,7 hPa 0,0 l/m 4,3 km/h (1 Bft) W 270 10,1 C 12,9 C
07.06.2012 02:31 12,9 C 83 % 1008,8 hPa 0,0 l/m 0,0 km/h (0 Bft) SW 225 10,1 C 12,9 C
07.06.2012 02:36 12,9 C 83 % 1008,7 hPa 0,0 l/m 0,0 km/h (0 Bft) W-SW 247 10,1 C 12,9 C
07.06.2012 02:41 12,9 C 83 % 1008,7 hPa 0,0 l/m 0,0 km/h (0 Bft) SW 225 10,1 C 12,9 C
07.06.2012 02:46 12,8 C 83 % 1008,6 hPa 0,0 l/m 0,0 km/h (0 Bft) S-SW 202 10,0 C 12,8 C
07.06.2012 02:51 12,8 C 83 % 1008,5 hPa 0,0 l/m 0,0 km/h (0 Bft) S-SW 202 10,0 C 12,8 C
07.06.2012 02:56 12,6 C 83 % 1008,7 hPa 0,0 l/m 0,0 km/h (0 Bft) SW 225 9,8 C 12,6 C
07.06.2012 03:01 12,6 C 83 % 1008,7 hPa 0,0 l/m 1,8 km/h (1 Bft) S-SW 202 9,8 C 12,6 C
07.06.2012 03:06 12,4 C 83 % 1008,7 hPa 0,0 l/m 0,0 km/h (0 Bft) S 180 9,6 C 12,4 C
07.06.2012 03:11 12,4 C 83 % 1008,7 hPa 0,0 l/m 5,0 km/h (1 Bft) W-SW 247 9,6 C 12,4 C
07.06.2012 03:16 12,3 C 83 % 1008,8 hPa 0,0 l/m 5,8 km/h (2 Bft) SO 135 9,5 C 12,3 C
07.06.2012 03:21 12,3 C 84 % 1008,7 hPa 0,0 l/m 3,2 km/h (1 Bft) S-SW 202 9,7 C 12,3 C
07.06.2012 03:26 12,2 C 84 % 1008,7 hPa 0,0 l/m 2,9 km/h (1 Bft) S 180 9,6 C 12,2 C
07.06.2012 03:31 12,1 C 84 % 1008,8 hPa 0,0 l/m 2,2 km/h (1 Bft) S-SW 202 9,5 C 12,1 C
07.06.2012 03:36 12,1 C 84 % 1008,7 hPa 0,0 l/m 0,0 km/h (0 Bft) S-SO 157 9,5 C 12,1 C
07.06.2012 03:41 12,1 C 84 % 1008,7 hPa 0,0 l/m 2,9 km/h (1 Bft) S-SO 157 9,5 C 12,1 C
07.06.2012 03:46 11,9 C 84 % 1008,7 hPa 0,0 l/m 0,0 km/h (0 Bft) S-SO 157 9,3 C 11,9 C
07.06.2012 03:51 11,9 C 84 % 1008,6 hPa 0,0 l/m 0,0 km/h (0 Bft) S-SO 157 9,3 C 11,9 C
07.06.2012 03:56 11,8 C 84 % 1008,5 hPa 0,0 l/m 0,0 km/h (0 Bft) S-SO 157 9,2 C 11,8 C
07.06.2012 04:01 11,7 C 84 % 1008,6 hPa 0,0 l/m 0,0 km/h (0 Bft) S-SO 157 9,1 C 11,7 C
07.06.2012 04:06 11,6 C 84 % 1008,6 hPa 0,0 l/m 2,9 km/h (1 Bft) S-SO 157 9,0 C 11,6 C
07.06.2012 04:11 11,6 C 84 % 1008,6 hPa 0,0 l/m 2,2 km/h (1 Bft) S-SO 157 9,0 C 11,6 C
07.06.2012 04:16 11,5 C 84 % 1008,7 hPa 0,0 l/m 0,0 km/h (0 Bft) SO 135 8,9 C 11,5 C
07.06.2012 04:21 11,4 C 85 % 1008,6 hPa 0,0 l/m 5,0 km/h (1 Bft) S-SO 157 9,0 C 11,4 C
07.06.2012 04:26 11,3 C 85 % 1008,7 hPa 0,0 l/m 2,2 km/h (1 Bft) S-SO 157 8,9 C 11,3 C
07.06.2012 04:31 11,3 C 85 % 1008,7 hPa 0,0 l/m 0,0 km/h (0 Bft) SO 135 8,9 C 11,3 C
07.06.2012 04:36 11,3 C 85 % 1008,7 hPa 0,0 l/m 1,1 km/h (1 Bft) SO 135 8,9 C 11,3 C
07.06.2012 04:41 11,3 C 85 % 1008,6 hPa 0,0 l/m 0,0 km/h (0 Bft) S-SO 157 8,9 C 11,3 C
07.06.2012 04:46 11,2 C 85 % 1008,6 hPa 0,0 l/m 0,0 km/h (0 Bft) SO 135 8,8 C 11,2 C
07.06.2012 04:51 11,1 C 85 % 1008,7 hPa 0,0 l/m 1,1 km/h (1 Bft) S-SO 157 8,7 C 11,1 C
07.06.2012 04:56 11,0 C 85 % 1008,8 hPa 0,0 l/m 0,0 km/h (0 Bft) S-SO 157 8,6 C 11,0 C
07.06.2012 05:01 10,9 C 85 % 1008,7 hPa 0,0 l/m 0,0 km/h (0 Bft) S-SO 157 8,5 C 10,9 C
07.06.2012 05:06 10,9 C 85 % 1008,8 hPa 0,0 l/m 0,0 km/h (0 Bft) S 180 8,5 C 10,9 C
07.06.2012 05:11 10,9 C 85 % 1008,8 hPa 0,0 l/m 2,9 km/h (1 Bft) S-SO 157 8,5 C 10,9 C
07.06.2012 05:16 10,9 C 86 % 1008,8 hPa 0,0 l/m 1,4 km/h (1 Bft) SO 135 8,7 C 10,9 C
07.06.2012 05:21 10,9 C 86 % 1008,8 hPa 0,0 l/m 2,5 km/h (1 Bft) SO 135 8,7 C 10,9 C
07.06.2012 05:26 10,9 C 86 % 1008,9 hPa 0,0 l/m 3,2 km/h (1 Bft) SO 135 8,7 C 10,9 C
07.06.2012 05:31 10,8 C 86 % 1008,9 hPa 0,0 l/m 0,0 km/h (0 Bft) SO 135 8,6 C 10,8 C
07.06.2012 05:36 10,7 C 86 % 1008,9 hPa 0,0 l/m 1,8 km/h (1 Bft) S-SO 157 8,5 C 10,7 C
07.06.2012 05:41 10,6 C 86 % 1009,1 hPa 0,0 l/m 0,0 km/h (0 Bft) S-SO 157 8,4 C 10,6 C
07.06.2012 05:46 10,8 C 86 % 1009,0 hPa 0,0 l/m 0,0 km/h (0 Bft) SO 135 8,6 C 10,8 C
07.06.2012 05:51 10,7 C 86 % 1009,0 hPa 0,0 l/m 0,0 km/h (0 Bft) SO 135 8,5 C 10,7 C
07.06.2012 05:56 10,7 C 86 % 1009,1 hPa 0,0 l/m 3,6 km/h (1 Bft) S-SO 157 8,5 C 10,7 C
07.06.2012 06:01 10,7 C 87 % 1009,0 hPa 0,0 l/m 4,3 km/h (1 Bft) S-SO 157 8,6 C 10,7 C
07.06.2012 06:06 10,8 C 87 % 1009,0 hPa 0,0 l/m 3,2 km/h (1 Bft) S-SO 157 8,7 C 10,8 C
07.06.2012 06:11 10,8 C 87 % 1009,1 hPa 0,0 l/m 2,2 km/h (1 Bft) S-SO 157 8,7 C 10,8 C
07.06.2012 06:16 10,8 C 87 % 1008,9 hPa 0,0 l/m 6,8 km/h (2 Bft) S 180 8,7 C 10,8 C
07.06.2012 06:21 10,8 C 87 % 1008,9 hPa 0,0 l/m 5,8 km/h (2 Bft) S 180 8,7 C 10,8 C
07.06.2012 06:26 10,9 C 87 % 1009,0 hPa 0,0 l/m 4,7 km/h (1 Bft) S-SW 202 8,8 C 10,9 C
07.06.2012 06:31 11,1 C 87 % 1008,8 hPa 0,0 l/m 2,9 km/h (1 Bft) SO 135 9,0 C 11,1 C
07.06.2012 06:36 11,3 C 87 % 1008,8 hPa 0,0 l/m 4,0 km/h (1 Bft) S 180 9,2 C 11,3 C
07.06.2012 06:41 11,4 C 87 % 1008,9 hPa 0,0 l/m 4,7 km/h (1 Bft) S-SW 202 9,3 C 11,4 C
07.06.2012 06:46 11,5 C 87 % 1008,9 hPa 0,0 l/m 7,2 km/h (2 Bft) S 180 9,4 C 11,5 C
07.06.2012 06:51 11,6 C 87 % 1008,9 hPa 0,0 l/m 5,8 km/h (2 Bft) S-SO 157 9,5 C 11,6 C
07.06.2012 06:56 11,6 C 87 % 1008,9 hPa 0,0 l/m 4,3 km/h (1 Bft) S-SO 157 9,5 C 11,6 C
07.06.2012 07:01 11,7 C 87 % 1008,8 hPa 0,0 l/m 6,1 km/h (2 Bft) S-SW 202 9,6 C 11,7 C
07.06.2012 07:06 11,8 C 87 % 1008,8 hPa 0,0 l/m 4,3 km/h (1 Bft) S 180 9,7 C 11,8 C
07.06.2012 07:11 11,9 C 87 % 1008,9 hPa 0,0 l/m 5,8 km/h (2 Bft) S-SO 157 9,8 C 11,9 C
07.06.2012 07:16 12,1 C 87 % 1008,9 hPa 0,0 l/m 2,2 km/h (1 Bft) S-SO 157 10,0 C 12,1 C
07.06.2012 07:21 12,3 C 87 % 1009,0 hPa 0,0 l/m 1,4 km/h (1 Bft) S-SO 157 10,2 C 12,3 C
07.06.2012 07:26 12,5 C 87 % 1009,1 hPa 0,0 l/m 0,0 km/h (0 Bft) S-SO 157 10,4 C 12,5 C
07.06.2012 07:31 12,8 C 87 % 1009,0 hPa 0,0 l/m 4,7 km/h (1 Bft) SO 135 10,7 C 12,8 C
07.06.2012 07:36 13,1 C 87 % 1008,9 hPa 0,0 l/m 4,7 km/h (1 Bft) SO 135 11,0 C 13,1 C
07.06.2012 07:41 13,6 C 86 % 1008,9 hPa 0,0 l/m 3,2 km/h (1 Bft) S-SO 157 11,3 C 13,6 C
07.06.2012 07:46 13,9 C 86 % 1009,0 hPa 0,0 l/m 4,0 km/h (1 Bft) S 180 11,6 C 13,9 C
07.06.2012 07:51 14,1 C 85 % 1009,0 hPa 0,0 l/m 0,0 km/h (0 Bft) O-SO 112 11,6 C 14,1 C
07.06.2012 07:56 14,1 C 84 % 1009,0 hPa 0,0 l/m 5,4 km/h (1 Bft) S 180 11,4 C 14,1 C
07.06.2012 08:01 14,2 C 84 % 1009,1 hPa 0,0 l/m 2,9 km/h (1 Bft) S 180 11,5 C 14,2 C
07.06.2012 08:06 14,3 C 84 % 1009,1 hPa 0,0 l/m 4,0 km/h (1 Bft) S-SO 157 11,6 C 14,3 C
07.06.2012 08:11 14,3 C 84 % 1009,0 hPa 0,0 l/m 5,8 km/h (2 Bft) SO 135 11,6 C 14,3 C
07.06.2012 08:16 14,4 C 84 % 1009,1 hPa 0,0 l/m 5,4 km/h (1 Bft) S-SO 157 11,7 C 14,4 C
07.06.2012 08:21 14,4 C 84 % 1009,0 hPa 0,0 l/m 4,0 km/h (1 Bft) S-SO 157 11,7 C 14,4 C
07.06.2012 08:26 14,5 C 84 % 1009,1 hPa 0,0 l/m 4,0 km/h (1 Bft) S-SW 202 11,8 C 14,5 C
07.06.2012 08:31 14,6 C 84 % 1009,1 hPa 0,0 l/m 3,2 km/h (1 Bft) S-SO 157 11,9 C 14,6 C
07.06.2012 08:36 14,6 C 83 % 1009,1 hPa 0,0 l/m 5,8 km/h (2 Bft) SO 135 11,7 C 14,6 C
07.06.2012 08:41 14,6 C 83 % 1008,9 hPa 0,0 l/m 1,8 km/h (1 Bft) S-SO 157 11,7 C 14,6 C
07.06.2012 08:46 14,7 C 83 % 1009,0 hPa 0,0 l/m 3,6 km/h (1 Bft) S-SO 157 11,8 C 14,7 C
07.06.2012 08:51 14,8 C 83 % 1008,8 hPa 0,0 l/m 1,1 km/h (1 Bft) S 180 11,9 C 14,8 C
07.06.2012 08:56 14,9 C 83 % 1008,8 hPa 0,0 l/m 0,0 km/h (0 Bft) S 180 12,0 C 14,9 C
07.06.2012 09:01 14,9 C 83 % 1008,8 hPa 0,0 l/m 4,3 km/h (1 Bft) S-SO 157 12,0 C 14,9 C
07.06.2012 09:06 14,9 C 83 % 1008,8 hPa 0,0 l/m 2,5 km/h (1 Bft) S 180 12,0 C 14,9 C
07.06.2012 09:11 15,3 C 83 % 1008,8 hPa 0,0 l/m 10,1 km/h (2 Bft) S-SO 157 12,4 C 15,3 C
07.06.2012 09:16 15,4 C 82 % 1008,7 hPa 0,0 l/m 0,0 km/h (0 Bft) SO 135 12,3 C 15,4 C
07.06.2012 09:21 15,6 C 81 % 1008,7 hPa 0,0 l/m 4,7 km/h (1 Bft) S-SO 157 12,3 C 15,6 C
07.06.2012 09:26 15,8 C 81 % 1008,7 hPa 0,0 l/m 4,3 km/h (1 Bft) S-SO 157 12,5 C 15,8 C
07.06.2012 09:31 15,9 C 81 % 1008,7 hPa 0,0 l/m 5,0 km/h (1 Bft) SO 135 12,6 C 15,9 C
07.06.2012 09:36 16,1 C 81 % 1008,7 hPa 0,0 l/m 4,7 km/h (1 Bft) S-SO 157 12,8 C 16,1 C
07.06.2012 09:41 16,2 C 80 % 1008,7 hPa 0,0 l/m 4,7 km/h (1 Bft) S 180 12,7 C 16,2 C
07.06.2012 09:46 16,5 C 79 % 1008,7 hPa 0,0 l/m 4,0 km/h (1 Bft) O-SO 112 12,8 C 16,5 C
07.06.2012 09:51 16,6 C 78 % 1008,7 hPa 0,0 l/m 7,6 km/h (2 Bft) S 180 12,7 C 16,6 C
07.06.2012 09:56 16,8 C 77 % 1008,6 hPa 0,0 l/m 6,8 km/h (2 Bft) SW 225 12,7 C 16,8 C
07.06.2012 10:01 16,8 C 77 % 1008,5 hPa 0,0 l/m 5,4 km/h (1 Bft) S 180 12,7 C 16,8 C
07.06.2012 10:06 16,9 C 77 % 1008,5 hPa 0,0 l/m 1,4 km/h (1 Bft) S-SW 202 12,8 C 16,9 C
07.06.2012 10:11 16,9 C 77 % 1008,5 hPa 0,0 l/m 4,0 km/h (1 Bft) S 180 12,8 C 16,9 C
07.06.2012 10:16 16,9 C 77 % 1008,5 hPa 0,0 l/m 5,4 km/h (1 Bft) S 180 12,8 C 16,9 C
07.06.2012 10:21 17,1 C 76 % 1008,4 hPa 0,0 l/m 4,3 km/h (1 Bft) SW 225 12,8 C 17,1 C
07.06.2012 10:26 17,3 C 76 % 1008,4 hPa 0,0 l/m 7,6 km/h (2 Bft) S 180 13,0 C 17,3 C
07.06.2012 10:31 17,4 C 75 % 1008,4 hPa 0,0 l/m 6,1 km/h (2 Bft) S 180 12,9 C 17,4 C
07.06.2012 10:36 17,6 C 74 % 1008,2 hPa 0,0 l/m 5,0 km/h (1 Bft) S 180 12,9 C 17,6 C
07.06.2012 10:41 17,6 C 73 % 1008,3 hPa 0,0 l/m 3,6 km/h (1 Bft) S-SO 157 12,7 C 17,6 C
07.06.2012 10:46 17,6 C 73 % 1008,3 hPa 0,0 l/m 3,2 km/h (1 Bft) S 180 12,7 C 17,6 C
07.06.2012 10:51 17,6 C 74 % 1008,2 hPa 0,0 l/m 4,7 km/h (1 Bft) S-SO 157 12,9 C 17,6 C
07.06.2012 10:56 17,6 C 74 % 1008,3 hPa 0,0 l/m 6,1 km/h (2 Bft) SW 225 12,9 C 17,6 C
07.06.2012 11:01 17,6 C 74 % 1008,3 hPa 0,0 l/m 3,6 km/h (1 Bft) S-SW 202 12,9 C 17,6 C
07.06.2012 11:06 17,6 C 74 % 1008,4 hPa 0,0 l/m 6,8 km/h (2 Bft) S-SO 157 12,9 C 17,6 C
07.06.2012 11:11 17,6 C 74 % 1008,5 hPa 0,0 l/m 4,7 km/h (1 Bft) S-SW 202 12,9 C 17,6 C
07.06.2012 11:16 17,6 C 73 % 1008,4 hPa 0,0 l/m 8,3 km/h (2 Bft) SW 225 12,7 C 17,6 C
07.06.2012 11:21 17,6 C 73 % 1008,5 hPa 0,0 l/m 4,3 km/h (1 Bft) SW 225 12,7 C 17,6 C
07.06.2012 11:26 17,8 C 73 % 1008,5 hPa 0,0 l/m 5,4 km/h (1 Bft) S-SO 157 12,9 C 17,8 C
07.06.2012 11:31 17,8 C 73 % 1008,5 hPa 0,0 l/m 5,0 km/h (1 Bft) S 180 12,9 C 17,8 C
07.06.2012 11:36 17,8 C 72 % 1008,4 hPa 0,0 l/m 8,6 km/h (2 Bft) S 180 12,7 C 17,8 C
07.06.2012 11:41 17,9 C 72 % 1008,4 hPa 0,0 l/m 3,6 km/h (1 Bft) SO 135 12,8 C 17,9 C
07.06.2012 11:46 17,9 C 72 % 1008,3 hPa 0,0 l/m 4,0 km/h (1 Bft) O-SO 112 12,8 C 17,9 C
07.06.2012 11:51 18,0 C 72 % 1008,3 hPa 0,0 l/m 10,1 km/h (2 Bft) S-SW 202 12,9 C 18,0 C
07.06.2012 11:56 18,1 C 72 % 1008,1 hPa 0,0 l/m 8,3 km/h (2 Bft) S-SO 157 13,0 C 18,1 C
07.06.2012 12:01 18,1 C 72 % 1008,2 hPa 0,0 l/m 10,8 km/h (2 Bft) S-SO 157 13,0 C 18,1 C
07.06.2012 12:06 18,2 C 72 % 1008,2 hPa 0,0 l/m 9,4 km/h (2 Bft) S-SO 157 13,1 C 18,2 C
07.06.2012 12:11 18,2 C 72 % 1008,1 hPa 0,0 l/m 3,6 km/h (1 Bft) S-SO 157 13,1 C 18,2 C
07.06.2012 12:16 18,3 C 72 % 1008,1 hPa 0,0 l/m 6,5 km/h (2 Bft) SO 135 13,2 C 18,3 C
07.06.2012 12:21 18,4 C 72 % 1008,1 hPa 0,0 l/m 3,2 km/h (1 Bft) S-SO 157 13,3 C 18,4 C
07.06.2012 12:26 18,6 C 72 % 1008,0 hPa 0,0 l/m 10,1 km/h (2 Bft) S-SO 157 13,4 C 18,6 C
07.06.2012 12:31 18,8 C 72 % 1008,1 hPa 0,0 l/m 11,5 km/h (2 Bft) S 180 13,6 C 18,8 C
07.06.2012 12:36 19,0 C 71 % 1008,1 hPa 0,0 l/m 7,2 km/h (2 Bft) S-SO 157 13,6 C 19,0 C
07.06.2012 12:41 19,1 C 71 % 1008,1 hPa 0,0 l/m 7,6 km/h (2 Bft) SW 225 13,7 C 19,1 C
07.06.2012 12:46 19,0 C 70 % 1008,1 hPa 0,0 l/m 4,7 km/h (1 Bft) S 180 13,4 C 19,0 C
07.06.2012 12:51 19,1 C 71 % 1008,0 hPa 0,0 l/m 5,8 km/h (2 Bft) S-SW 202 13,7 C 19,1 C
07.06.2012 12:56 19,3 C 70 % 1008,0 hPa 0,0 l/m 6,1 km/h (2 Bft) W-NW 292 13,7 C 19,3 C
07.06.2012 13:01 19,5 C 70 % 1007,9 hPa 0,0 l/m 5,8 km/h (2 Bft) S-SO 157 13,9 C 19,5 C
07.06.2012 13:06 19,8 C 69 % 1007,8 hPa 0,0 l/m 8,6 km/h (2 Bft) SW 225 13,9 C 19,8 C
07.06.2012 13:11 20,1 C 69 % 1007,5 hPa 0,0 l/m 5,4 km/h (1 Bft) W-SW 247 14,2 C 20,1 C
07.06.2012 13:16 20,3 C 68 % 1007,7 hPa 0,0 l/m 9,4 km/h (2 Bft) S-SW 202 14,2 C 20,3 C
07.06.2012 13:21 20,3 C 67 % 1007,6 hPa 0,0 l/m 2,9 km/h (1 Bft) SO 135 14,0 C 20,3 C
07.06.2012 13:26 20,4 C 68 % 1007,4 hPa 0,0 l/m 6,5 km/h (2 Bft) S-SW 202 14,3 C 20,4 C
07.06.2012 13:31 20,5 C 67 % 1007,5 hPa 0,0 l/m 15,8 km/h (3 Bft) S-SO 157 14,2 C 20,5 C
07.06.2012 13:36 20,6 C 66 % 1007,3 hPa 0,0 l/m 1,8 km/h (1 Bft) O-SO 112 14,0 C 20,6 C
07.06.2012 13:41 20,9 C 66 % 1007,3 hPa 0,0 l/m 11,2 km/h (2 Bft) S-SW 202 14,3 C 20,9 C
07.06.2012 13:46 21,0 C 65 % 1007,3 hPa 0,0 l/m 10,4 km/h (2 Bft) W-SW 247 14,2 C 21,0 C
07.06.2012 13:51 21,1 C 65 % 1007,3 hPa 0,0 l/m 10,4 km/h (2 Bft) W-SW 247 14,3 C 21,1 C
07.06.2012 13:56 21,2 C 64 % 1007,2 hPa 0,0 l/m 9,7 km/h (2 Bft) W 270 14,1 C 21,2 C
07.06.2012 14:01 21,2 C 63 % 1007,2 hPa 0,0 l/m 5,0 km/h (1 Bft) W 270 13,9 C 21,2 C
07.06.2012 14:06 21,3 C 62 % 1007,0 hPa 0,0 l/m 3,6 km/h (1 Bft) W-SW 247 13,7 C 21,3 C
07.06.2012 14:11 21,1 C 62 % 1007,0 hPa 0,0 l/m 5,8 km/h (2 Bft) SW 225 13,5 C 21,1 C
07.06.2012 14:16 20,9 C 62 % 1007,0 hPa 0,0 l/m 6,5 km/h (2 Bft) SW 225 13,3 C 20,9 C
07.06.2012 14:21 20,8 C 63 % 1007,0 hPa 0,0 l/m 4,0 km/h (1 Bft) S 180 13,5 C 20,8 C
07.06.2012 14:26 20,5 C 64 % 1007,1 hPa 0,5 l/m 10,1 km/h (2 Bft) S-SO 157 13,5 C 20,5 C
07.06.2012 14:31 20,1 C 66 % 1007,0 hPa 0,0 l/m 5,8 km/h (2 Bft) S-SO 157 13,5 C 20,1 C
07.06.2012 14:36 19,8 C 68 % 1007,0 hPa 0,0 l/m 2,2 km/h (1 Bft) S 180 13,7 C 19,8 C
07.06.2012 14:41 19,6 C 69 % 1007,1 hPa 0,0 l/m 4,3 km/h (1 Bft) S 180 13,8 C 19,6 C
07.06.2012 14:46 19,4 C 70 % 1007,0 hPa 0,0 l/m 3,2 km/h (1 Bft) SO 135 13,8 C 19,4 C
07.06.2012 14:51 19,2 C 71 % 1006,9 hPa 0,0 l/m 4,7 km/h (1 Bft) S 180 13,8 C 19,2 C
07.06.2012 14:56 19,2 C 72 % 1007,0 hPa 0,0 l/m 0,0 km/h (0 Bft) W-SW 247 14,0 C 19,2 C
07.06.2012 15:01 19,1 C 72 % 1006,9 hPa 0,0 l/m 3,2 km/h (1 Bft) S-SW 202 13,9 C 19,1 C
07.06.2012 15:06 19,1 C 72 % 1006,9 hPa 0,0 l/m 0,0 km/h (0 Bft) SW 225 13,9 C 19,1 C
07.06.2012 15:11 19,1 C 72 % 1006,8 hPa 0,0 l/m 2,5 km/h (1 Bft) S 180 13,9 C 19,1 C
07.06.2012 15:16 19,0 C 72 % 1006,8 hPa 0,0 l/m 1,1 km/h (1 Bft) W 270 13,8 C 19,0 C
07.06.2012 15:21 19,0 C 73 % 1006,7 hPa 0,0 l/m 2,2 km/h (1 Bft) S 180 14,0 C 19,0 C
07.06.2012 15:26 18,9 C 73 % 1006,8 hPa 0,0 l/m 0,0 km/h (0 Bft) S-SO 157 13,9 C 18,9 C
07.06.2012 15:31 18,9 C 73 % 1006,7 hPa 0,0 l/m 9,4 km/h (2 Bft) S-SO 157 13,9 C 18,9 C
07.06.2012 15:36 18,9 C 73 % 1006,7 hPa 0,0 l/m 2,5 km/h (1 Bft) S-SO 157 13,9 C 18,9 C
07.06.2012 15:41 18,8 C 73 % 1006,5 hPa 0,0 l/m 0,0 km/h (0 Bft) S-SO 157 13,9 C 18,8 C
07.06.2012 15:46 18,8 C 73 % 1006,3 hPa 0,0 l/m 3,2 km/h (1 Bft) S-SO 157 13,9 C 18,8 C
07.06.2012 15:51 18,8 C 74 % 1006,5 hPa 0,0 l/m 2,5 km/h (1 Bft) S 180 14,1 C 18,8 C
07.06.2012 15:56 18,8 C 74 % 1006,4 hPa 0,0 l/m 1,4 km/h (1 Bft) S-SO 157 14,1 C 18,8 C
07.06.2012 16:01 18,7 C 74 % 1006,4 hPa 0,0 l/m 0,0 km/h (0 Bft) SO 135 14,0 C 18,7 C
07.06.2012 16:06 18,7 C 74 % 1006,5 hPa 0,0 l/m 0,0 km/h (0 Bft) S 180 14,0 C 18,7 C
07.06.2012 16:11 18,6 C 74 % 1006,6 hPa 0,0 l/m 0,0 km/h (0 Bft) S 180 13,9 C 18,6 C
07.06.2012 16:16 18,6 C 74 % 1006,4 hPa 0,0 l/m 2,5 km/h (1 Bft) S 180 13,9 C 18,6 C
07.06.2012 16:21 18,6 C 74 % 1006,3 hPa 0,0 l/m 2,2 km/h (1 Bft) S 180 13,9 C 18,6 C
07.06.2012 16:26 18,5 C 74 % 1006,3 hPa 0,0 l/m 4,7 km/h (1 Bft) S 180 13,8 C 18,5 C
07.06.2012 16:31 18,4 C 74 % 1006,3 hPa 0,0 l/m 3,6 km/h (1 Bft) S 180 13,7 C 18,4 C
07.06.2012 16:36 18,4 C 74 % 1006,3 hPa 0,0 l/m 7,2 km/h (2 Bft) S-SO 157 13,7 C 18,4 C
07.06.2012 16:41 18,3 C 75 % 1006,4 hPa 0,0 l/m 7,6 km/h (2 Bft) S-SW 202 13,8 C 18,3 C
07.06.2012 16:46 18,2 C 75 % 1006,3 hPa 0,0 l/m 1,8 km/h (1 Bft) SO 135 13,7 C 18,2 C
07.06.2012 16:51 18,1 C 76 % 1006,1 hPa 0,0 l/m 3,2 km/h (1 Bft) SO 135 13,8 C 18,1 C
07.06.2012 16:56 17,9 C 76 % 1006,0 hPa 0,0 l/m 1,4 km/h (1 Bft) O-SO 112 13,6 C 17,9 C
07.06.2012 17:01 17,8 C 77 % 1006,1 hPa 0,0 l/m 0,0 km/h (0 Bft) SO 135 13,7 C 17,8 C
07.06.2012 17:06 17,6 C 78 % 1006,0 hPa 0,0 l/m 0,0 km/h (0 Bft) SO 135 13,7 C 17,6 C
07.06.2012 17:11 17,6 C 78 % 1006,1 hPa 0,0 l/m 2,2 km/h (1 Bft) O-SO 112 13,7 C 17,6 C
07.06.2012 17:16 17,6 C 79 % 1006,1 hPa 0,0 l/m 2,2 km/h (1 Bft) SO 135 13,9 C 17,6 C
07.06.2012 17:21 17,5 C 79 % 1005,9 hPa 0,0 l/m 2,9 km/h (1 Bft) O-SO 112 13,8 C 17,5 C
07.06.2012 17:26 17,5 C 79 % 1005,8 hPa 0,0 l/m 0,0 km/h (0 Bft) SO 135 13,8 C 17,5 C
07.06.2012 17:31 17,5 C 79 % 1005,8 hPa 0,0 l/m 3,2 km/h (1 Bft) O-NO 67 13,8 C 17,5 C
07.06.2012 17:36 17,4 C 80 % 1005,7 hPa 0,0 l/m 2,2 km/h (1 Bft) O 90 13,9 C 17,4 C
07.06.2012 17:41 17,5 C 79 % 1005,7 hPa 0,0 l/m 2,5 km/h (1 Bft) O 90 13,8 C 17,5 C
07.06.2012 17:46 17,5 C 79 % 1005,7 hPa 0,0 l/m 0,0 km/h (0 Bft) O-SO 112 13,8 C 17,5 C
07.06.2012 17:51 17,5 C 79 % 1005,6 hPa 0,0 l/m 6,1 km/h (2 Bft) SO 135 13,8 C 17,5 C
07.06.2012 17:56 17,5 C 79 % 1005,6 hPa 0,0 l/m 3,6 km/h (1 Bft) O-NO 67 13,8 C 17,5 C
07.06.2012 18:01 17,5 C 80 % 1005,6 hPa 0,0 l/m 3,6 km/h (1 Bft) O 90 14,0 C 17,5 C
07.06.2012 18:06 17,4 C 80 % 1005,7 hPa 0,0 l/m 0,0 km/h (0 Bft) SO 135 13,9 C 17,4 C
07.06.2012 18:11 17,4 C 80 % 1005,5 hPa 0,0 l/m 6,8 km/h (2 Bft) SO 135 13,9 C 17,4 C
07.06.2012 18:16 17,4 C 80 % 1005,6 hPa 0,0 l/m 2,2 km/h (1 Bft) O-SO 112 13,9 C 17,4 C
07.06.2012 18:21 17,3 C 81 % 1005,5 hPa 0,0 l/m 0,0 km/h (0 Bft) O 90 14,0 C 17,3 C
07.06.2012 18:26 17,3 C 81 % 1005,5 hPa 0,0 l/m 1,4 km/h (1 Bft) SO 135 14,0 C 17,3 C
07.06.2012 18:31 17,3 C 81 % 1005,4 hPa 0,0 l/m 6,1 km/h (2 Bft) O-SO 112 14,0 C 17,3 C
07.06.2012 18:36 17,3 C 82 % 1005,5 hPa 0,0 l/m 7,6 km/h (2 Bft) O-SO 112 14,2 C 17,3 C
07.06.2012 18:41 17,4 C 82 % 1005,5 hPa 0,0 l/m 4,0 km/h (1 Bft) O-SO 112 14,3 C 17,4 C
07.06.2012 18:46 17,4 C 82 % 1005,5 hPa 0,0 l/m 3,6 km/h (1 Bft) O 90 14,3 C 17,4 C
07.06.2012 18:51 17,5 C 81 % 1005,5 hPa 0,0 l/m 4,0 km/h (1 Bft) O 90 14,2 C 17,5 C
07.06.2012 18:56 17,6 C 81 % 1005,3 hPa 0,0 l/m 2,5 km/h (1 Bft) O 90 14,3 C 17,6 C
07.06.2012 19:01 17,7 C 80 % 1005,3 hPa 0,0 l/m 1,4 km/h (1 Bft) O 90 14,2 C 17,7 C
07.06.2012 19:06 17,8 C 80 % 1005,3 hPa 0,0 l/m 4,3 km/h (1 Bft) O 90 14,3 C 17,8 C
07.06.2012 19:11 17,8 C 80 % 1005,2 hPa 0,0 l/m 8,6 km/h (2 Bft) O 90 14,3 C 17,8 C
07.06.2012 19:16 17,9 C 80 % 1005,2 hPa 0,0 l/m 0,0 km/h (0 Bft) SO 135 14,4 C 17,9 C
07.06.2012 19:21 17,9 C 80 % 1005,1 hPa 0,0 l/m 5,0 km/h (1 Bft) SO 135 14,4 C 17,9 C
07.06.2012 19:26 17,9 C 80 % 1005,1 hPa 0,0 l/m 4,0 km/h (1 Bft) O 90 14,4 C 17,9 C
07.06.2012 19:31 17,9 C 80 % 1005,2 hPa 0,0 l/m 2,2 km/h (1 Bft) SO 135 14,4 C 17,9 C
07.06.2012 19:36 17,9 C 80 % 1005,2 hPa 0,0 l/m 3,2 km/h (1 Bft) SO 135 14,4 C 17,9 C
07.06.2012 19:41 17,9 C 80 % 1005,2 hPa 0,0 l/m 4,3 km/h (1 Bft) O 90 14,4 C 17,9 C
07.06.2012 19:46 17,9 C 80 % 1005,0 hPa 0,0 l/m 5,8 km/h (2 Bft) SO 135 14,4 C 17,9 C
07.06.2012 19:51 17,9 C 81 % 1005,1 hPa 0,0 l/m 1,8 km/h (1 Bft) O 90 14,6 C 17,9 C
07.06.2012 19:56 18,0 C 80 % 1005,2 hPa 0,0 l/m 4,3 km/h (1 Bft) O-SO 112 14,5 C 18,0 C
07.06.2012 20:01 17,9 C 80 % 1005,2 hPa 0,0 l/m 5,4 km/h (1 Bft) O 90 14,4 C 17,9 C
07.06.2012 20:06 18,1 C 80 % 1005,2 hPa 0,0 l/m 3,6 km/h (1 Bft) O-NO 67 14,6 C 18,1 C
07.06.2012 20:11 18,1 C 80 % 1005,1 hPa 0,0 l/m 4,7 km/h (1 Bft) O-NO 67 14,6 C 18,1 C
07.06.2012 20:16 17,9 C 79 % 1005,1 hPa 0,0 l/m 4,3 km/h (1 Bft) O-NO 67 14,2 C 17,9 C
07.06.2012 20:21 17,9 C 79 % 1005,2 hPa 0,0 l/m 3,6 km/h (1 Bft) O 90 14,2 C 17,9 C
07.06.2012 20:26 17,8 C 80 % 1005,2 hPa 0,0 l/m 5,4 km/h (1 Bft) O 90 14,3 C 17,8 C
07.06.2012 20:31 17,8 C 80 % 1005,1 hPa 0,0 l/m 5,0 km/h (1 Bft) O-SO 112 14,3 C 17,8 C
07.06.2012 20:36 17,8 C 80 % 1005,1 hPa 0,0 l/m 3,6 km/h (1 Bft) O-SO 112 14,3 C 17,8 C
07.06.2012 20:41 17,6 C 80 % 1005,0 hPa 0,0 l/m 5,0 km/h (1 Bft) O 90 14,1 C 17,6 C
07.06.2012 20:46 17,6 C 81 % 1004,9 hPa 0,0 l/m 2,2 km/h (1 Bft) O 90 14,3 C 17,6 C
07.06.2012 20:51 17,5 C 81 % 1004,7 hPa 0,0 l/m 4,3 km/h (1 Bft) N-NO 22 14,2 C 17,5 C
07.06.2012 20:56 17,4 C 82 % 1004,6 hPa 0,0 l/m 4,0 km/h (1 Bft) O 90 14,3 C 17,4 C
07.06.2012 21:01 17,3 C 82 % 1004,8 hPa 0,0 l/m 4,0 km/h (1 Bft) O-SO 112 14,2 C 17,3 C
07.06.2012 21:06 17,3 C 82 % 1004,8 hPa 0,0 l/m 7,6 km/h (2 Bft) O 90 14,2 C 17,3 C
07.06.2012 21:11 17,3 C 82 % 1004,7 hPa 0,0 l/m 8,3 km/h (2 Bft) O-SO 112 14,2 C 17,3 C
07.06.2012 21:16 17,2 C 82 % 1004,9 hPa 0,0 l/m 2,2 km/h (1 Bft) O 90 14,1 C 17,2 C
07.06.2012 21:21 17,2 C 82 % 1004,8 hPa 0,0 l/m 4,0 km/h (1 Bft) O-NO 67 14,1 C 17,2 C
07.06.2012 21:26 17,1 C 82 % 1004,6 hPa 0,0 l/m 4,0 km/h (1 Bft) O-SO 112 14,0 C 17,1 C
07.06.2012 21:31 16,9 C 83 % 1004,8 hPa 0,0 l/m 4,7 km/h (1 Bft) O-SO 112 14,0 C 16,9 C
07.06.2012 21:36 16,9 C 83 % 1004,7 hPa 0,0 l/m 8,6 km/h (2 Bft) O 90 14,0 C 16,9 C
07.06.2012 21:41 16,7 C 83 % 1004,8 hPa 0,0 l/m 3,2 km/h (1 Bft) SO 135 13,8 C 16,7 C
07.06.2012 21:46 16,6 C 84 % 1004,7 hPa 0,0 l/m 9,4 km/h (2 Bft) O-SO 112 13,9 C 16,6 C
07.06.2012 21:51 16,5 C 84 % 1004,7 hPa 0,0 l/m 7,2 km/h (2 Bft) O-SO 112 13,8 C 16,5 C
07.06.2012 21:56 16,4 C 85 % 1004,5 hPa 0,0 l/m 4,7 km/h (1 Bft) O-SO 112 13,9 C 16,4 C
07.06.2012 22:01 16,3 C 85 % 1004,5 hPa 0,0 l/m 5,0 km/h (1 Bft) SO 135 13,8 C 16,3 C
07.06.2012 22:06 16,1 C 85 % 1004,4 hPa 0,0 l/m 7,2 km/h (2 Bft) O 90 13,6 C 16,1 C
07.06.2012 22:11 16,1 C 85 % 1004,5 hPa 0,0 l/m 2,9 km/h (1 Bft) SO 135 13,6 C 16,1 C
07.06.2012 22:16 15,9 C 85 % 1004,6 hPa 0,0 l/m 6,8 km/h (2 Bft) O 90 13,4 C 15,9 C
07.06.2012 22:21 15,9 C 85 % 1004,5 hPa 0,0 l/m 5,8 km/h (2 Bft) O-SO 112 13,4 C 15,9 C
07.06.2012 22:26 15,8 C 86 % 1004,5 hPa 0,0 l/m 6,8 km/h (2 Bft) O-SO 112 13,5 C 15,8 C
07.06.2012 22:31 15,8 C 86 % 1004,7 hPa 0,0 l/m 4,0 km/h (1 Bft) O-SO 112 13,5 C 15,8 C
07.06.2012 22:36 15,6 C 86 % 1004,6 hPa 0,0 l/m 4,7 km/h (1 Bft) O-SO 112 13,3 C 15,6 C
07.06.2012 22:41 15,6 C 86 % 1004,6 hPa 0,0 l/m 3,2 km/h (1 Bft) O 90 13,3 C 15,6 C
07.06.2012 22:46 15,6 C 86 % 1004,9 hPa 0,0 l/m 9,4 km/h (2 Bft) O-SO 112 13,3 C 15,6 C
07.06.2012 22:51 15,6 C 86 % 1004,7 hPa 0,0 l/m 5,0 km/h (1 Bft) O-SO 112 13,3 C 15,6 C
07.06.2012 22:56 15,6 C 86 % 1004,8 hPa 0,0 l/m 4,3 km/h (1 Bft) O 90 13,3 C 15,6 C
07.06.2012 23:01 15,6 C 86 % 1004,7 hPa 0,0 l/m 4,7 km/h (1 Bft) O-SO 112 13,3 C 15,6 C
07.06.2012 23:06 15,6 C 86 % 1004,5 hPa 0,0 l/m 5,4 km/h (1 Bft) O-NO 67 13,3 C 15,6 C
07.06.2012 23:11 15,6 C 86 % 1004,5 hPa 0,0 l/m 4,0 km/h (1 Bft) O-SO 112 13,3 C 15,6 C
07.06.2012 23:16 15,6 C 86 % 1004,6 hPa 0,0 l/m 2,5 km/h (1 Bft) O 90 13,3 C 15,6 C
07.06.2012 23:21 15,5 C 86 % 1004,5 hPa 0,0 l/m 7,2 km/h (2 Bft) O 90 13,2 C 15,5 C
07.06.2012 23:26 15,5 C 86 % 1004,4 hPa 0,0 l/m 4,0 km/h (1 Bft) O 90 13,2 C 15,5 C
07.06.2012 23:31 15,5 C 86 % 1004,4 hPa 0,0 l/m 8,3 km/h (2 Bft) O 90 13,2 C 15,5 C
07.06.2012 23:36 15,5 C 86 % 1004,4 hPa 0,0 l/m 4,7 km/h (1 Bft) O-SO 112 13,2 C 15,5 C
07.06.2012 23:41 15,5 C 86 % 1004,5 hPa 0,0 l/m 7,2 km/h (2 Bft) O 90 13,2 C 15,5 C
07.06.2012 23:46 15,4 C 86 % 1004,4 hPa 0,0 l/m 7,2 km/h (2 Bft) O 90 13,1 C 15,4 C
07.06.2012 23:51 15,4 C 86 % 1004,3 hPa 0,0 l/m 3,6 km/h (1 Bft) O 90 13,1 C 15,4 C
07.06.2012 23:56 15,4 C 86 % 1004,2 hPa 0,0 l/m 5,8 km/h (2 Bft) O-SO 112 13,1 C 15,4 C
_ Min-Zeit 05:41 14:06 23:56 - 00:11 - - 05:41 05:41
Minimum _ 10,6 C 62 % 1004,2 hPa - 0,0 km/h (0 Bft) - - 8,4 C 10,6 C
_ Max-Zeit 14:06 06:01 05:41 14:26 13:31 - - 20:06 14:06
Maximum _ 21,3 C 87 % 1009,1 hPa 0,5 l/m 15,8 km/h
S-SO (3 Bft)
- - 14,6 C 21,3 C
Durchschnitt _ 15,7 C 80 % 1007,3 hPa #0,5 l/m 3,8 km/h (1 Bft) S-SO - 12,2 C 15,7 C
(c) by David Heller